sensor_id;sensor_type;location;lat;lon;timestamp;pressure;altitude;pressure_sealevel;temperature;humidity
73267;BME280;61495;53.400;7.608;2023-04-15T00:01:00;101081.19;;;6.93;75.89
73267;BME280;61495;53.400;7.608;2023-04-15T00:03:25;101090.03;;;6.94;76.32
73267;BME280;61495;53.400;7.608;2023-04-15T00:05:52;101082.53;;;6.89;76.33
73267;BME280;61495;53.400;7.608;2023-04-15T00:08:17;101083.94;;;6.85;76.48
73267;BME280;61495;53.400;7.608;2023-04-15T00:10:43;101074.81;;;6.80;75.88
73267;BME280;61495;53.400;7.608;2023-04-15T00:13:10;101080.50;;;6.77;75.90
73267;BME280;61495;53.400;7.608;2023-04-15T00:15:36;101072.19;;;6.71;76.25
73267;BME280;61495;53.400;7.608;2023-04-15T00:18:01;101073.38;;;6.69;75.65
73267;BME280;61495;53.400;7.608;2023-04-15T00:20:27;101079.03;;;6.66;75.22
73267;BME280;61495;53.400;7.608;2023-04-15T00:22:52;101081.41;;;6.61;75.95
73267;BME280;61495;53.400;7.608;2023-04-15T00:25:18;101081.28;;;6.54;75.23
73267;BME280;61495;53.400;7.608;2023-04-15T00:27:44;101085.94;;;6.52;75.41
73267;BME280;61495;53.400;7.608;2023-04-15T00:30:09;101081.13;;;6.48;76.24
73267;BME280;61495;53.400;7.608;2023-04-15T00:32:35;101082.31;;;6.45;75.88
73267;BME280;61495;53.400;7.608;2023-04-15T00:35:01;101070.72;;;6.38;75.87
73267;BME280;61495;53.400;7.608;2023-04-15T00:37:27;101071.06;;;6.35;74.90
73267;BME280;61495;53.400;7.608;2023-04-15T00:39:53;101079.56;;;6.31;76.20
73267;BME280;61495;53.400;7.608;2023-04-15T00:42:18;101075.13;;;6.23;76.59
73267;BME280;61495;53.400;7.608;2023-04-15T00:44:46;101078.94;;;6.21;75.88
73267;BME280;61495;53.400;7.608;2023-04-15T00:47:11;101081.28;;;6.15;76.53
73267;BME280;61495;53.400;7.608;2023-04-15T00:49:37;101089.59;;;6.12;76.68
73267;BME280;61495;53.400;7.608;2023-04-15T00:52:03;101077.00;;;6.06;76.30
73267;BME280;61495;53.400;7.608;2023-04-15T00:54:28;101087.97;;;6.03;76.24
73267;BME280;61495;53.400;7.608;2023-04-15T00:56:54;101081.38;;;5.99;76.65
73267;BME280;61495;53.400;7.608;2023-04-15T00:59:20;101076.72;;;5.93;76.77
73267;BME280;61495;53.400;7.608;2023-04-15T01:01:45;101078.72;;;5.91;76.61
73267;BME280;61495;53.400;7.608;2023-04-15T01:04:11;101079.88;;;5.89;77.35
73267;BME280;61495;53.400;7.608;2023-04-15T01:06:37;101083.72;;;5.86;77.08
73267;BME280;61495;53.400;7.608;2023-04-15T01:09:02;101081.69;;;5.80;77.68
73267;BME280;61495;53.400;7.608;2023-04-15T01:11:28;101081.69;;;5.80;79.60
73267;BME280;61495;53.400;7.608;2023-04-15T01:13:55;101087.34;;;5.77;77.62
73267;BME280;61495;53.400;7.608;2023-04-15T01:16:22;101088.03;;;5.71;79.00
73267;BME280;61495;53.400;7.608;2023-04-15T01:18:48;101085.56;;;5.70;78.39
73267;BME280;61495;53.400;7.608;2023-04-15T01:21:13;101085.91;;;5.67;78.07
73267;BME280;61495;53.400;7.608;2023-04-15T01:23:38;101080.09;;;5.63;78.30
73267;BME280;61495;53.400;7.608;2023-04-15T01:26:05;101082.56;;;5.65;79.98
73267;BME280;61495;53.400;7.608;2023-04-15T01:28:32;101081.59;;;5.57;80.86
73267;BME280;61495;53.400;7.608;2023-04-15T01:31:11;101087.41;;;5.61;79.55
73267;BME280;61495;53.400;7.608;2023-04-15T01:33:41;101082.44;;;5.58;79.13
73267;BME280;61495;53.400;7.608;2023-04-15T01:36:08;101082.75;;;5.55;80.66
73267;BME280;61495;53.400;7.608;2023-04-15T01:38:48;101078.59;;;5.52;80.06
73267;BME280;61495;53.400;7.608;2023-04-15T01:41:30;101082.75;;;5.55;81.37
73267;BME280;61495;53.400;7.608;2023-04-15T01:44:16;101081.09;;;5.54;80.56
73267;BME280;61495;53.400;7.608;2023-04-15T01:46:44;101076.44;;;5.48;79.61
73267;BME280;61495;53.400;7.608;2023-04-15T01:49:21;101079.94;;;5.48;80.91
73267;BME280;61495;53.400;7.608;2023-04-15T01:51:59;101080.09;;;5.47;80.96
73267;BME280;61495;53.400;7.608;2023-04-15T01:54:25;101077.63;;;5.45;79.72
73267;BME280;61495;53.400;7.608;2023-04-15T01:56:51;101080.44;;;5.44;80.62
73267;BME280;61495;53.400;7.608;2023-04-15T01:59:17;101088.41;;;5.44;80.52
73267;BME280;61495;53.400;7.608;2023-04-15T02:01:42;101084.09;;;5.43;80.83
73267;BME280;61495;53.400;7.608;2023-04-15T02:04:09;101074.47;;;5.42;81.10
73267;BME280;61495;53.400;7.608;2023-04-15T02:06:41;101076.13;;;5.35;81.86
73267;BME280;61495;53.400;7.608;2023-04-15T02:09:06;101088.06;;;5.39;81.91
73267;BME280;61495;53.400;7.608;2023-04-15T02:11:32;101081.09;;;5.38;81.40
73267;BME280;61495;53.400;7.608;2023-04-15T02:14:08;101074.47;;;5.34;82.24
73267;BME280;61495;53.400;7.608;2023-04-15T02:16:34;101077.13;;;5.34;81.40
73267;BME280;61495;53.400;7.608;2023-04-15T02:18:59;101077.13;;;5.34;81.78
73267;BME280;61495;53.400;7.608;2023-04-15T02:21:25;101082.59;;;5.32;82.20
73267;BME280;61495;53.400;7.608;2023-04-15T02:23:51;101082.94;;;5.29;81.81
73267;BME280;61495;53.400;7.608;2023-04-15T02:26:18;101076.13;;;5.27;81.42
73267;BME280;61495;53.400;7.608;2023-04-15T02:28:45;101069.84;;;5.28;80.77
73267;BME280;61495;53.400;7.608;2023-04-15T02:31:10;101083.25;;;5.26;81.04
73267;BME280;61495;53.400;7.608;2023-04-15T02:33:36;101076.78;;;5.21;81.73
73267;BME280;61495;53.400;7.608;2023-04-15T02:36:02;101083.09;;;5.20;81.62
73267;BME280;61495;53.400;7.608;2023-04-15T02:38:27;101081.28;;;5.20;81.91
73267;BME280;61495;53.400;7.608;2023-04-15T02:40:53;101085.75;;;5.20;82.44
73267;BME280;61495;53.400;7.608;2023-04-15T02:43:22;101087.75;;;5.18;82.05
73267;BME280;61495;53.400;7.608;2023-04-15T02:45:48;101085.41;;;5.15;83.36
73267;BME280;61495;53.400;7.608;2023-04-15T02:48:13;101092.41;;;5.16;82.72
73267;BME280;61495;53.400;7.608;2023-04-15T02:50:39;101101.34;;;5.15;82.39
73267;BME280;61495;53.400;7.608;2023-04-15T02:53:05;101091.91;;;5.12;82.75
73267;BME280;61495;53.400;7.608;2023-04-15T02:55:30;101100.03;;;5.11;83.19
73267;BME280;61495;53.400;7.608;2023-04-15T02:57:56;101093.38;;;5.07;82.70
73267;BME280;61495;53.400;7.608;2023-04-15T03:00:24;101094.88;;;5.09;82.49
73267;BME280;61495;53.400;7.608;2023-04-15T03:02:50;101088.09;;;5.07;83.66
73267;BME280;61495;53.400;7.608;2023-04-15T03:05:20;101096.03;;;5.07;82.61
73267;BME280;61495;53.400;7.608;2023-04-15T03:07:48;101092.56;;;5.06;83.46
73267;BME280;61495;53.400;7.608;2023-04-15T03:10:14;101080.13;;;4.98;83.59
73267;BME280;61495;53.400;7.608;2023-04-15T03:12:49;101091.22;;;5.02;83.71
73267;BME280;61495;53.400;7.608;2023-04-15T03:15:14;101085.75;;;4.95;82.29
73267;BME280;61495;53.400;7.608;2023-04-15T03:17:39;101101.03;;;5.01;83.77
73267;BME280;61495;53.400;7.608;2023-04-15T03:20:05;101103.84;;;5.00;84.11
73267;BME280;61495;53.400;7.608;2023-04-15T03:22:31;101105.66;;;4.99;83.73
73267;BME280;61495;53.400;7.608;2023-04-15T03:24:57;101108.47;;;4.98;83.77
73267;BME280;61495;53.400;7.608;2023-04-15T03:27:23;101098.00;;;4.96;83.98
73267;BME280;61495;53.400;7.608;2023-04-15T03:29:48;101102.50;;;4.96;84.13
73267;BME280;61495;53.400;7.608;2023-04-15T03:32:14;101095.03;;;4.91;83.64
73267;BME280;61495;53.400;7.608;2023-04-15T03:34:40;101086.41;;;4.89;83.33
73267;BME280;61495;53.400;7.608;2023-04-15T03:37:06;101090.56;;;4.92;83.68
73267;BME280;61495;53.400;7.608;2023-04-15T03:39:31;101093.34;;;4.90;85.12
73267;BME280;61495;53.400;7.608;2023-04-15T03:41:57;101089.72;;;4.91;84.53
73267;BME280;61495;53.400;7.608;2023-04-15T03:44:29;101094.06;;;4.92;85.25
73267;BME280;61495;53.400;7.608;2023-04-15T03:46:54;101088.06;;;4.90;85.90
73267;BME280;61495;53.400;7.608;2023-04-15T03:49:20;101089.06;;;4.89;84.75
73267;BME280;61495;53.400;7.608;2023-04-15T03:51:47;101083.75;;;4.89;84.56
73267;BME280;61495;53.400;7.608;2023-04-15T03:54:12;101088.06;;;4.90;84.98
73267;BME280;61495;53.400;7.608;2023-04-15T03:56:39;101087.41;;;4.88;84.89
73267;BME280;61495;53.400;7.608;2023-04-15T03:59:04;101085.56;;;4.89;84.68
73267;BME280;61495;53.400;7.608;2023-04-15T04:01:30;101089.22;;;4.88;85.10
73267;BME280;61495;53.400;7.608;2023-04-15T04:03:55;101090.38;;;4.85;84.86
73267;BME280;61495;53.400;7.608;2023-04-15T04:06:21;101094.53;;;4.88;85.80
73267;BME280;61495;53.400;7.608;2023-04-15T04:08:46;101095.34;;;4.88;86.42
73267;BME280;61495;53.400;7.608;2023-04-15T04:11:12;101092.88;;;4.87;86.26
73267;BME280;61495;53.400;7.608;2023-04-15T04:13:42;101091.22;;;4.86;85.01
73267;BME280;61495;53.400;7.608;2023-04-15T04:16:07;101100.00;;;4.86;85.65
73267;BME280;61495;53.400;7.608;2023-04-15T04:18:33;101101.00;;;4.85;86.39
73267;BME280;61495;53.400;7.608;2023-04-15T04:20:58;101098.34;;;4.85;85.65
73267;BME280;61495;53.400;7.608;2023-04-15T04:23:24;101100.47;;;4.82;84.99
73267;BME280;61495;53.400;7.608;2023-04-15T04:25:50;101097.69;;;4.83;85.18
73267;BME280;61495;53.400;7.608;2023-04-15T04:28:16;101102.16;;;4.83;85.09
73267;BME280;61495;53.400;7.608;2023-04-15T04:30:42;101097.31;;;4.78;85.47
73267;BME280;61495;53.400;7.608;2023-04-15T04:33:07;101095.69;;;4.77;85.04
73267;BME280;61495;53.400;7.608;2023-04-15T04:35:33;101101.97;;;4.76;85.16
73267;BME280;61495;53.400;7.608;2023-04-15T04:38:01;101113.56;;;4.75;85.38
73267;BME280;61495;53.400;7.608;2023-04-15T04:40:27;101111.59;;;4.77;85.67
73267;BME280;61495;53.400;7.608;2023-04-15T04:42:52;101113.41;;;4.77;86.39
73267;BME280;61495;53.400;7.608;2023-04-15T04:45:18;101116.22;;;4.75;85.53
73267;BME280;61495;53.400;7.608;2023-04-15T04:47:44;101114.59;;;4.74;86.65
73267;BME280;61495;53.400;7.608;2023-04-15T04:50:09;101112.06;;;4.73;87.87
73267;BME280;61495;53.400;7.608;2023-04-15T04:52:35;101121.19;;;4.78;87.26
73267;BME280;61495;53.400;7.608;2023-04-15T04:55:00;101119.25;;;4.80;88.35
73267;BME280;61495;53.400;7.608;2023-04-15T04:57:26;101125.88;;;4.84;90.77
73267;BME280;61495;53.400;7.608;2023-04-15T04:59:51;101123.22;;;4.84;90.76
73267;BME280;61495;53.400;7.608;2023-04-15T05:02:16;101120.22;;;4.87;91.83
73267;BME280;61495;53.400;7.608;2023-04-15T05:04:42;101133.22;;;4.98;91.34
73267;BME280;61495;53.400;7.608;2023-04-15T05:07:07;101117.09;;;5.00;92.83
73267;BME280;61495;53.400;7.608;2023-04-15T05:09:33;101127.25;;;5.04;93.49
73267;BME280;61495;53.400;7.608;2023-04-15T05:12:00;101126.41;;;5.12;93.15
73267;BME280;61495;53.400;7.608;2023-04-15T05:14:31;101129.25;;;5.19;93.01
73267;BME280;61495;53.400;7.608;2023-04-15T05:16:56;101126.25;;;5.22;95.44
73267;BME280;61495;53.400;7.608;2023-04-15T05:19:21;101127.44;;;5.27;93.23
73267;BME280;61495;53.400;7.608;2023-04-15T05:21:47;101123.94;;;5.35;95.10
73267;BME280;61495;53.400;7.608;2023-04-15T05:24:12;101125.28;;;5.39;94.54
73267;BME280;61495;53.400;7.608;2023-04-15T05:26:37;101130.56;;;5.47;93.98
73267;BME280;61495;53.400;7.608;2023-04-15T05:29:03;101130.41;;;5.48;95.89
73267;BME280;61495;53.400;7.608;2023-04-15T05:31:28;101135.06;;;5.54;95.22
73267;BME280;61495;53.400;7.608;2023-04-15T05:33:54;101135.38;;;5.59;94.71
73267;BME280;61495;53.400;7.608;2023-04-15T05:36:19;101145.19;;;5.67;96.36
73267;BME280;61495;53.400;7.608;2023-04-15T05:38:45;101149.00;;;5.73;96.95
73267;BME280;61495;53.400;7.608;2023-04-15T05:41:10;101153.16;;;5.75;95.57
73267;BME280;61495;53.400;7.608;2023-04-15T05:43:36;101148.81;;;5.82;94.62
73267;BME280;61495;53.400;7.608;2023-04-15T05:46:01;101147.66;;;5.85;94.86
73267;BME280;61495;53.400;7.608;2023-04-15T05:48:27;101154.16;;;5.90;95.67
73267;BME280;61495;53.400;7.608;2023-04-15T05:50:52;101159.81;;;5.95;95.95
73267;BME280;61495;53.400;7.608;2023-04-15T05:53:17;101162.78;;;6.00;96.47
73267;BME280;61495;53.400;7.608;2023-04-15T05:55:43;101156.28;;;6.03;96.00
73267;BME280;61495;53.400;7.608;2023-04-15T05:58:08;101160.13;;;6.08;96.33
73267;BME280;61495;53.400;7.608;2023-04-15T06:00:33;101156.44;;;6.09;95.75
73267;BME280;61495;53.400;7.608;2023-04-15T06:02:59;101168.06;;;6.17;96.65
73267;BME280;61495;53.400;7.608;2023-04-15T06:05:25;101175.38;;;6.23;95.86
73267;BME280;61495;53.400;7.608;2023-04-15T06:07:50;101174.84;;;6.27;96.77
73267;BME280;61495;53.400;7.608;2023-04-15T06:10:16;101175.34;;;6.31;96.94
73267;BME280;61495;53.400;7.608;2023-04-15T06:12:43;101185.66;;;6.34;97.19
73267;BME280;61495;53.400;7.608;2023-04-15T06:15:08;101181.47;;;6.39;95.96
73267;BME280;61495;53.400;7.608;2023-04-15T06:17:35;101171.00;;;6.38;96.15
73267;BME280;61495;53.400;7.608;2023-04-15T06:20:00;101183.94;;;6.49;96.39
73267;BME280;61495;53.400;7.608;2023-04-15T06:22:25;101182.75;;;6.51;96.38
73267;BME280;61495;53.400;7.608;2023-04-15T06:24:51;101192.06;;;6.55;96.36
73267;BME280;61495;53.400;7.608;2023-04-15T06:27:17;101194.88;;;6.62;95.07
73267;BME280;61495;53.400;7.608;2023-04-15T06:29:43;101199.84;;;6.65;95.35
73267;BME280;61495;53.400;7.608;2023-04-15T06:32:08;101202.00;;;6.69;94.27
73267;BME280;61495;53.400;7.608;2023-04-15T06:34:34;101203.31;;;6.74;96.65
73267;BME280;61495;53.400;7.608;2023-04-15T06:36:59;101203.44;;;6.80;95.95
73267;BME280;61495;53.400;7.608;2023-04-15T06:39:25;101197.75;;;6.83;95.40
73267;BME280;61495;53.400;7.608;2023-04-15T06:41:51;101205.06;;;6.89;95.09
73267;BME280;61495;53.400;7.608;2023-04-15T06:44:16;101200.56;;;6.90;95.83
73267;BME280;61495;53.400;7.608;2023-04-15T06:46:43;101216.16;;;7.01;97.28
73267;BME280;61495;53.400;7.608;2023-04-15T06:49:09;101207.34;;;7.00;96.66
73267;BME280;61495;53.400;7.608;2023-04-15T06:51:34;101217.31;;;7.06;96.07
73267;BME280;61495;53.400;7.608;2023-04-15T06:54:00;101221.59;;;7.07;95.71
73267;BME280;61495;53.400;7.608;2023-04-15T06:56:26;101218.78;;;7.09;94.82
73267;BME280;61495;53.400;7.608;2023-04-15T06:58:52;101220.06;;;7.13;96.38
73267;BME280;61495;53.400;7.608;2023-04-15T07:01:17;101222.41;;;7.16;95.44
73267;BME280;61495;53.400;7.608;2023-04-15T07:03:43;101222.22;;;7.17;95.09
73267;BME280;61495;53.400;7.608;2023-04-15T07:06:09;101221.25;;;7.18;95.18
73267;BME280;61495;53.400;7.608;2023-04-15T07:08:34;101215.56;;;7.21;93.85
73267;BME280;61495;53.400;7.608;2023-04-15T07:11:00;101232.69;;;7.27;95.21
73267;BME280;61495;53.400;7.608;2023-04-15T07:13:30;101227.81;;;7.31;94.81
73267;BME280;61495;53.400;7.608;2023-04-15T07:15:55;101221.66;;;7.30;94.40
73267;BME280;61495;53.400;7.608;2023-04-15T07:18:20;101220.84;;;7.30;94.79
73267;BME280;61495;53.400;7.608;2023-04-15T07:20:46;101230.78;;;7.36;94.63
73267;BME280;61495;53.400;7.608;2023-04-15T07:23:12;101219.78;;;7.39;93.58
73267;BME280;61495;53.400;7.608;2023-04-15T07:25:37;101229.72;;;7.45;94.60
73267;BME280;61495;53.400;7.608;2023-04-15T07:28:03;101217.25;;;7.45;94.58
73267;BME280;61495;53.400;7.608;2023-04-15T07:30:28;101227.00;;;7.53;92.84
73267;BME280;61495;53.400;7.608;2023-04-15T07:32:53;101222.31;;;7.55;94.86
73267;BME280;61495;53.400;7.608;2023-04-15T07:35:19;101230.28;;;7.63;95.64
73267;BME280;61495;53.400;7.608;2023-04-15T07:37:46;101227.59;;;7.63;93.13
73267;BME280;61495;53.400;7.608;2023-04-15T07:40:12;101228.88;;;7.67;94.29
73267;BME280;61495;53.400;7.608;2023-04-15T07:42:38;101235.34;;;7.72;94.80
73267;BME280;61495;53.400;7.608;2023-04-15T07:45:04;101225.16;;;7.76;94.16
73267;BME280;61495;53.400;7.608;2023-04-15T07:47:30;101236.59;;;7.84;95.45
73267;BME280;61495;53.400;7.608;2023-04-15T07:49:56;101225.44;;;7.81;93.24
73267;BME280;61495;53.400;7.608;2023-04-15T07:52:21;101238.38;;;7.92;93.26
73267;BME280;61495;53.400;7.608;2023-04-15T07:54:47;101237.28;;;8.01;93.88
73267;BME280;61495;53.400;7.608;2023-04-15T07:57:12;101233.59;;;8.02;93.31
73267;BME280;61495;53.400;7.608;2023-04-15T07:59:37;101246.06;;;8.10;94.16
73267;BME280;61495;53.400;7.608;2023-04-15T08:02:03;101248.53;;;8.11;93.29
73267;BME280;61495;53.400;7.608;2023-04-15T08:04:28;101237.69;;;8.13;93.82
73267;BME280;61495;53.400;7.608;2023-04-15T08:06:53;101248.75;;;8.24;94.19
73267;BME280;61495;53.400;7.608;2023-04-15T08:09:19;101247.28;;;8.22;93.40
73267;BME280;61495;53.400;7.608;2023-04-15T08:11:47;101257.06;;;8.29;93.61
73267;BME280;61495;53.400;7.608;2023-04-15T08:14:13;101248.41;;;8.27;93.43
73267;BME280;61495;53.400;7.608;2023-04-15T08:16:38;101250.88;;;8.29;93.21
73267;BME280;61495;53.400;7.608;2023-04-15T08:19:04;101266.66;;;8.38;93.28
73267;BME280;61495;53.400;7.608;2023-04-15T08:21:29;101262.63;;;8.43;92.26
73267;BME280;61495;53.400;7.608;2023-04-15T08:23:55;101255.59;;;8.42;93.68
73267;BME280;61495;53.400;7.608;2023-04-15T08:26:21;101261.78;;;8.42;93.12
73267;BME280;61495;53.400;7.608;2023-04-15T08:28:47;101257.91;;;8.45;93.05
73267;BME280;61495;53.400;7.608;2023-04-15T08:31:14;101267.59;;;8.46;93.41
73267;BME280;61495;53.400;7.608;2023-04-15T08:33:40;101267.97;;;8.43;92.65
73267;BME280;61495;53.400;7.608;2023-04-15T08:36:06;101260.94;;;8.42;93.02
73267;BME280;61495;53.400;7.608;2023-04-15T08:38:32;101264.72;;;8.47;92.48
73267;BME280;61495;53.400;7.608;2023-04-15T08:40:59;101262.25;;;8.46;93.74
73267;BME280;61495;53.400;7.608;2023-04-15T08:43:27;101267.88;;;8.51;94.32
73267;BME280;61495;53.400;7.608;2023-04-15T08:45:56;101263.16;;;8.53;94.59
73267;BME280;61495;53.400;7.608;2023-04-15T08:48:28;101267.88;;;8.65;93.10
73267;BME280;61495;53.400;7.608;2023-04-15T08:50:53;101262.91;;;8.62;93.55
73267;BME280;61495;53.400;7.608;2023-04-15T08:53:19;101267.41;;;8.62;93.69
73267;BME280;61495;53.400;7.608;2023-04-15T08:55:50;101258.28;;;8.56;94.35
73267;BME280;61495;53.400;7.608;2023-04-15T08:58:16;101266.03;;;8.80;96.47
73267;BME280;61495;53.400;7.608;2023-04-15T09:00:43;101279.28;;;8.88;94.11
73267;BME280;61495;53.400;7.608;2023-04-15T09:03:10;101277.81;;;8.86;95.01
73267;BME280;61495;53.400;7.608;2023-04-15T09:05:36;101271.09;;;8.90;94.29
73267;BME280;61495;53.400;7.608;2023-04-15T09:08:02;101277.34;;;8.97;93.65
73267;BME280;61495;53.400;7.608;2023-04-15T09:10:28;101281.06;;;8.96;93.13
73267;BME280;61495;53.400;7.608;2023-04-15T09:12:54;101280.13;;;8.89;94.33
73267;BME280;61495;53.400;7.608;2023-04-15T09:15:20;101282.34;;;8.85;93.25
73267;BME280;61495;53.400;7.608;2023-04-15T09:17:46;101284.09;;;8.93;94.01
73267;BME280;61495;53.400;7.608;2023-04-15T09:20:14;101285.19;;;8.99;93.50
73267;BME280;61495;53.400;7.608;2023-04-15T09:22:41;101291.25;;;9.07;94.11
73267;BME280;61495;53.400;7.608;2023-04-15T09:27:59;101282.88;;;9.10;93.78
73267;BME280;61495;53.400;7.608;2023-04-15T09:30:27;101300.28;;;9.06;92.98
73267;BME280;61495;53.400;7.608;2023-04-15T09:33:00;101290.63;;;9.05;92.84
73267;BME280;61495;53.400;7.608;2023-04-15T09:35:26;101296.34;;;9.02;92.69
73267;BME280;61495;53.400;7.608;2023-04-15T09:37:53;101298.81;;;9.04;93.17
73267;BME280;61495;53.400;7.608;2023-04-15T09:40:35;101299.28;;;9.07;92.88
73267;BME280;61495;53.400;7.608;2023-04-15T09:43:02;101300.41;;;8.98;92.95
73267;BME280;61495;53.400;7.608;2023-04-15T09:45:29;101312.00;;;9.05;91.75
73267;BME280;61495;53.400;7.608;2023-04-15T09:47:56;101299.66;;;9.04;91.87
73267;BME280;61495;53.400;7.608;2023-04-15T09:50:26;101305.09;;;8.96;93.10
73267;BME280;61495;53.400;7.608;2023-04-15T09:52:52;101304.38;;;9.02;92.60
73267;BME280;61495;53.400;7.608;2023-04-15T09:55:17;101299.03;;;9.02;91.78
73267;BME280;61495;53.400;7.608;2023-04-15T09:57:44;101314.22;;;9.02;92.42
73267;BME280;61495;53.400;7.608;2023-04-15T10:00:11;101308.88;;;9.02;91.99
73267;BME280;61495;53.400;7.608;2023-04-15T10:02:39;101315.88;;;9.03;91.24
73267;BME280;61495;53.400;7.608;2023-04-15T10:05:06;101315.78;;;8.96;92.72
73267;BME280;61495;53.400;7.608;2023-04-15T10:07:33;101302.25;;;8.83;93.00
73267;BME280;61495;53.400;7.608;2023-04-15T10:09:59;101309.63;;;8.81;94.07
73267;BME280;61495;53.400;7.608;2023-04-15T10:12:30;101321.22;;;8.88;92.70
73267;BME280;61495;53.400;7.608;2023-04-15T10:14:58;101319.66;;;8.93;92.47
73267;BME280;61495;53.400;7.608;2023-04-15T10:17:26;101325.00;;;8.93;92.25
73267;BME280;61495;53.400;7.608;2023-04-15T10:19:59;101329.53;;;8.93;93.35
73267;BME280;61495;53.400;7.608;2023-04-15T10:22:26;101326.66;;;8.94;92.50
73267;BME280;61495;53.400;7.608;2023-04-15T10:24:52;101325.91;;;8.86;93.67
73267;BME280;61495;53.400;7.608;2023-04-15T10:27:18;101335.88;;;8.92;92.79
73267;BME280;61495;53.400;7.608;2023-04-15T10:29:44;101326.28;;;8.83;94.25
73267;BME280;61495;53.400;7.608;2023-04-15T10:32:11;101335.75;;;8.85;93.26
73267;BME280;61495;53.400;7.608;2023-04-15T10:34:38;101328.59;;;8.86;93.55
73267;BME280;61495;53.400;7.608;2023-04-15T10:37:04;101344.63;;;8.86;93.28
73267;BME280;61495;53.400;7.608;2023-04-15T10:42:08;101342.69;;;8.80;94.14
73267;BME280;61495;53.400;7.608;2023-04-15T10:44:55;101344.97;;;8.83;93.26
73267;BME280;61495;53.400;7.608;2023-04-15T10:47:21;101334.66;;;8.80;93.24
73267;BME280;61495;53.400;7.608;2023-04-15T10:49:48;101349.59;;;8.89;93.01
73267;BME280;61495;53.400;7.608;2023-04-15T10:52:16;101350.31;;;8.83;94.34
73267;BME280;61495;53.400;7.608;2023-04-15T10:54:42;101354.66;;;8.84;93.70
73267;BME280;61495;53.400;7.608;2023-04-15T10:57:14;101344.63;;;8.86;92.35
73267;BME280;61495;53.400;7.608;2023-04-15T11:02:51;101348.28;;;8.85;94.11
73267;BME280;61495;53.400;7.608;2023-04-15T11:05:18;101340.94;;;8.87;93.61
73267;BME280;61495;53.400;7.608;2023-04-15T11:12:45;101349.94;;;9.44;93.51
73267;BME280;61495;53.400;7.608;2023-04-15T11:15:31;101355.63;;;9.56;92.73
73267;BME280;61495;53.400;7.608;2023-04-15T11:17:58;101353.34;;;9.53;92.05
73267;BME280;61495;53.400;7.608;2023-04-15T11:20:24;101353.13;;;9.69;92.34
73267;BME280;61495;53.400;7.608;2023-04-15T11:22:53;101352.59;;;9.44;92.14
73267;BME280;61495;53.400;7.608;2023-04-15T11:25:32;101366.06;;;9.51;92.82
73267;BME280;61495;53.400;7.608;2023-04-15T11:28:00;101370.75;;;9.64;92.83
73267;BME280;61495;53.400;7.608;2023-04-15T11:30:27;101365.88;;;9.67;92.58
73267;BME280;61495;53.400;7.608;2023-04-15T11:33:02;101370.94;;;9.77;92.37
73267;BME280;61495;53.400;7.608;2023-04-15T11:35:28;101377.84;;;9.71;92.77
73267;BME280;61495;53.400;7.608;2023-04-15T11:37:54;101371.94;;;9.76;91.00
73267;BME280;61495;53.400;7.608;2023-04-15T11:40:28;101372.72;;;9.91;92.59
73267;BME280;61495;53.400;7.608;2023-04-15T11:43:07;101377.03;;;9.71;91.36
73267;BME280;61495;53.400;7.608;2023-04-15T11:45:34;101375.56;;;9.54;92.11
73267;BME280;61495;53.400;7.608;2023-04-15T11:48:10;101376.84;;;9.58;92.61
73267;BME280;61495;53.400;7.608;2023-04-15T11:50:37;101376.69;;;9.44;91.76
73267;BME280;61495;53.400;7.608;2023-04-15T11:53:08;101380.75;;;9.40;91.57
73267;BME280;61495;53.400;7.608;2023-04-15T11:55:47;101383.97;;;9.36;93.13
73267;BME280;61495;53.400;7.608;2023-04-15T11:58:21;101378.56;;;9.29;92.63
73267;BME280;61495;53.400;7.608;2023-04-15T12:00:48;101387.38;;;9.30;93.21
73267;BME280;61495;53.400;7.608;2023-04-15T12:03:25;101380.56;;;9.27;92.85
73267;BME280;61495;53.400;7.608;2023-04-15T12:11:30;101385.09;;;9.12;94.69
73267;BME280;61495;53.400;7.608;2023-04-15T12:14:05;101391.47;;;9.11;93.14
73267;BME280;61495;53.400;7.608;2023-04-15T12:16:33;101398.44;;;9.12;92.07
73267;BME280;61495;53.400;7.608;2023-04-15T12:18:59;101404.25;;;9.16;92.25
73267;BME280;61495;53.400;7.608;2023-04-15T12:21:34;101405.19;;;9.08;93.54
73267;BME280;61495;53.400;7.608;2023-04-15T12:24:02;101401.47;;;9.09;93.99
73267;BME280;61495;53.400;7.608;2023-04-15T12:26:34;101403.16;;;9.10;92.31
73267;BME280;61495;53.400;7.608;2023-04-15T12:29:04;101413.56;;;9.05;93.46
73267;BME280;61495;53.400;7.608;2023-04-15T12:31:31;101408.22;;;9.05;92.62
73267;BME280;61495;53.400;7.608;2023-04-15T12:33:58;101423.06;;;9.08;91.67
73267;BME280;61495;53.400;7.608;2023-04-15T12:36:24;101416.63;;;9.02;92.90
73267;BME280;61495;53.400;7.608;2023-04-15T12:38:49;101427.94;;;9.04;92.79
73267;BME280;61495;53.400;7.608;2023-04-15T12:41:15;101432.66;;;9.02;92.26
73267;BME280;61495;53.400;7.608;2023-04-15T12:43:50;101427.56;;;8.92;93.82
73267;BME280;61495;53.400;7.608;2023-04-15T12:46:15;101432.06;;;8.92;92.94
73267;BME280;61495;53.400;7.608;2023-04-15T12:48:41;101440.09;;;8.92;93.66
73267;BME280;61495;53.400;7.608;2023-04-15T12:51:06;101442.47;;;8.87;94.17
73267;BME280;61495;53.400;7.608;2023-04-15T12:53:32;101437.13;;;8.87;93.70
73267;BME280;61495;53.400;7.608;2023-04-15T12:55:57;101439.13;;;8.85;93.43
73267;BME280;61495;53.400;7.608;2023-04-15T12:58:22;101449.94;;;8.91;93.28
73267;BME280;61495;53.400;7.608;2023-04-15T13:00:48;101445.44;;;8.92;93.21
73267;BME280;61495;53.400;7.608;2023-04-15T13:03:14;101446.34;;;8.84;94.06
73267;BME280;61495;53.400;7.608;2023-04-15T13:05:40;101442.84;;;8.84;92.94
73267;BME280;61495;53.400;7.608;2023-04-15T13:08:06;101446.16;;;8.86;93.59
73267;BME280;61495;53.400;7.608;2023-04-15T13:10:32;101446.03;;;8.79;94.83
73267;BME280;61495;53.400;7.608;2023-04-15T13:12:58;101446.50;;;8.83;94.25
73267;BME280;61495;53.400;7.608;2023-04-15T13:15:23;101444.84;;;8.82;93.08
73267;BME280;61495;53.400;7.608;2023-04-15T13:17:50;101457.06;;;8.76;95.20